createdAt,value
2018-08-23T00:00:34.422Z,52.07
2018-08-23T00:03:02.911Z,52.16
2018-08-23T00:05:31.548Z,52.14
2018-08-23T00:08:09.000Z,51.85
2018-08-23T00:10:37.536Z,52.09
2018-08-23T00:13:07.186Z,52.59
2018-08-23T00:15:35.816Z,52.58
2018-08-23T00:18:04.176Z,53.11
2018-08-23T00:20:32.632Z,52.97
2018-08-23T00:23:01.123Z,53.26
2018-08-23T00:25:29.622Z,53.60
2018-08-23T00:27:57.946Z,53.75
2018-08-23T00:30:29.224Z,53.91
2018-08-23T00:32:58.756Z,53.84
2018-08-23T00:35:27.304Z,53.93
2018-08-23T00:37:55.728Z,53.56
2018-08-23T00:40:24.081Z,54.00
2018-08-23T00:42:57.927Z,54.23
2018-08-23T00:45:26.250Z,54.09
2018-08-23T00:47:54.573Z,53.89
2018-08-23T00:50:31.549Z,53.83
2018-08-23T00:52:59.978Z,54.16
2018-08-23T00:55:29.739Z,53.99
2018-08-23T00:57:58.207Z,54.44
2018-08-23T01:00:27.705Z,54.00
2018-08-23T01:03:04.455Z,53.95
2018-08-23T01:05:39.207Z,54.35
2018-08-23T01:08:08.744Z,53.85
2018-08-23T01:10:38.283Z,53.93
2018-08-23T01:13:06.599Z,54.32
2018-08-23T01:15:34.991Z,54.04
2018-08-23T01:18:14.071Z,54.38
2018-08-23T01:20:43.279Z,54.18
2018-08-23T01:23:11.607Z,54.29
2018-08-23T01:25:47.490Z,54.75
2018-08-23T01:28:15.870Z,54.28
2018-08-23T01:30:45.037Z,54.50
2018-08-23T01:33:18.063Z,54.73
2018-08-23T01:35:48.525Z,54.67
2018-08-23T01:38:17.351Z,54.63
2018-08-23T01:40:45.883Z,54.22
2018-08-23T01:43:14.755Z,54.45
2018-08-23T01:45:43.227Z,54.99
2018-08-23T01:48:12.111Z,54.75
2018-08-23T01:50:40.655Z,55.28
2018-08-23T01:53:09.068Z,55.13
2018-08-23T01:55:37.511Z,55.36
2018-08-23T01:58:06.179Z,55.24
2018-08-23T02:00:35.817Z,55.17
2018-08-23T02:03:04.951Z,55.57
2018-08-23T02:05:33.342Z,55.74
2018-08-23T02:08:01.773Z,55.49
2018-08-23T02:10:30.155Z,55.58
2018-08-23T02:12:59.043Z,55.99
2018-08-23T02:15:35.615Z,55.93
2018-08-23T02:18:04.791Z,55.64
2018-08-23T02:20:33.203Z,55.87
2018-08-23T02:23:04.893Z,55.96
2018-08-23T02:25:33.491Z,55.78
2018-08-23T02:28:03.099Z,55.75
2018-08-23T02:30:46.908Z,56.18
2018-08-23T02:33:15.859Z,56.33
2018-08-23T02:36:23.198Z,56.21
2018-08-23T02:39:01.559Z,56.60
2018-08-23T02:41:30.359Z,56.57
2018-08-23T02:43:58.827Z,56.89
2018-08-23T02:46:27.168Z,56.39
2018-08-23T02:48:55.655Z,56.96
2018-08-23T02:51:38.035Z,56.49
2018-08-23T02:54:06.579Z,56.96
2018-08-23T02:56:35.511Z,56.91
2018-08-23T02:59:07.199Z,56.99
2018-08-23T03:01:39.168Z,56.55
2018-08-23T03:04:19.806Z,57.05
2018-08-23T03:06:58.859Z,56.71
2018-08-23T03:09:35.813Z,57.17
2018-08-23T03:12:09.469Z,56.65
2018-08-23T03:14:38.296Z,57.10
2018-08-23T03:17:24.799Z,57.01
2018-08-23T03:20:04.783Z,57.23
2018-08-23T03:22:34.052Z,57.07
2018-08-23T03:25:04.850Z,57.06
2018-08-23T03:27:33.435Z,57.11
2018-08-23T03:30:03.001Z,57.48
2018-08-23T03:32:31.729Z,57.53
2018-08-23T03:35:00.687Z,57.11
2018-08-23T03:37:29.376Z,57.07
2018-08-23T03:39:57.793Z,57.05
2018-08-23T03:42:26.635Z,57.43
2018-08-23T03:44:56.007Z,57.46
2018-08-23T03:47:24.843Z,57.19
2018-08-23T03:49:53.184Z,57.34
2018-08-23T03:52:23.079Z,57.02
2018-08-23T03:54:56.683Z,57.30
2018-08-23T03:57:29.359Z,56.92
2018-08-23T03:59:57.715Z,57.11
2018-08-23T04:02:26.124Z,57.45
2018-08-23T04:05:06.507Z,57.60
2018-08-23T04:07:35.232Z,57.38
2018-08-23T04:10:03.636Z,57.74
2018-08-23T04:12:32.437Z,57.47
2018-08-23T04:15:15.842Z,57.71
2018-08-23T04:17:44.546Z,57.35
2018-08-23T04:20:12.944Z,57.59
2018-08-23T04:22:41.491Z,57.53
2018-08-23T04:25:10.103Z,57.32
2018-08-23T04:27:38.485Z,57.34
2018-08-23T04:30:08.042Z,57.58
2018-08-23T04:32:41.484Z,57.31
2018-08-23T04:35:12.450Z,57.32
2018-08-23T04:37:40.994Z,57.65
2018-08-23T04:40:10.405Z,57.51
2018-08-23T04:42:38.787Z,57.77
2018-08-23T04:45:13.843Z,57.74
2018-08-23T04:47:59.152Z,57.90
2018-08-23T04:50:27.880Z,57.49
2018-08-23T04:52:56.269Z,57.78
2018-08-23T04:55:25.395Z,57.34
2018-08-23T04:57:53.871Z,57.48
2018-08-23T05:00:22.223Z,57.49
2018-08-23T05:02:51.489Z,57.88
2018-08-23T05:05:20.096Z,57.87
2018-08-23T05:07:48.547Z,58.23
2018-08-23T05:10:16.880Z,58.17
2018-08-23T05:12:45.336Z,58.12
2018-08-23T05:15:13.652Z,58.25
2018-08-23T05:17:42.000Z,58.32
2018-08-23T05:20:10.660Z,58.68
2018-08-23T05:22:39.651Z,58.37
2018-08-23T05:25:14.770Z,58.74
2018-08-23T05:27:59.672Z,58.40
2018-08-23T05:30:29.088Z,58.88
2018-08-23T05:33:05.792Z,59.14
2018-08-23T05:35:34.340Z,58.83
2018-08-23T05:38:02.859Z,59.05
2018-08-23T05:40:36.542Z,58.69
2018-08-23T05:43:04.904Z,58.98
2018-08-23T05:45:38.872Z,59.38
2018-08-23T05:48:19.867Z,59.19
2018-08-23T05:50:48.307Z,59.36
2018-08-23T05:53:17.691Z,59.31
2018-08-23T05:55:49.419Z,59.25
2018-08-23T05:58:26.096Z,58.95
2018-08-23T06:00:54.974Z,58.79
2018-08-23T06:03:23.339Z,59.01
2018-08-23T06:05:51.926Z,58.91
2018-08-23T06:08:20.479Z,58.93
2018-08-23T06:10:51.359Z,59.34
2018-08-23T06:13:19.707Z,58.92
2018-08-23T06:15:53.339Z,59.16
2018-08-23T06:18:22.301Z,58.85
2018-08-23T06:20:50.671Z,59.02
2018-08-23T06:23:19.899Z,59.20
2018-08-23T06:25:48.932Z,59.09
2018-08-23T06:28:25.619Z,59.20
2018-08-23T06:30:57.092Z,59.08
2018-08-23T06:33:38.037Z,59.20
2018-08-23T06:36:08.801Z,59.22
2018-08-23T06:38:38.264Z,58.70
2018-08-23T06:41:08.160Z,58.89
2018-08-23T06:43:36.508Z,58.56
2018-08-23T06:46:05.410Z,58.66
2018-08-23T06:48:33.894Z,58.71
2018-08-23T06:51:03.344Z,58.62
2018-08-23T06:53:40.594Z,58.39
2018-08-23T06:56:09.128Z,58.21
2018-08-23T06:58:37.496Z,58.13
2018-08-23T07:01:11.172Z,58.28
2018-08-23T07:03:46.231Z,58.00
2018-08-23T07:06:14.720Z,57.78
2018-08-23T07:08:43.082Z,57.80
2018-08-23T07:11:19.843Z,58.02
2018-08-23T07:13:54.718Z,57.51
2018-08-23T07:16:23.644Z,57.69
2018-08-23T07:18:52.026Z,57.19
2018-08-23T07:21:20.389Z,57.52
2018-08-23T07:23:48.772Z,57.17
2018-08-23T07:26:17.179Z,56.96
2018-08-23T07:28:45.488Z,57.33
2018-08-23T07:31:14.020Z,57.13
2018-08-23T07:33:44.032Z,57.10
2018-08-23T07:36:23.472Z,56.84
2018-08-23T07:38:52.356Z,56.61
2018-08-23T07:41:20.693Z,56.47
2018-08-23T07:43:49.208Z,56.84
2018-08-23T07:46:17.586Z,56.82
2018-08-23T07:48:45.937Z,56.67
2018-08-23T07:51:19.632Z,56.79
2018-08-23T07:53:47.932Z,56.61
2018-08-23T07:56:21.577Z,56.57
2018-08-23T07:58:51.948Z,56.22
2018-08-23T08:01:24.630Z,56.33
2018-08-23T08:03:52.960Z,56.15
2018-08-23T08:06:25.827Z,56.17
2018-08-23T08:08:55.784Z,55.88
2018-08-23T08:11:24.230Z,55.90
2018-08-23T08:13:58.125Z,55.72
2018-08-23T08:16:30.604Z,55.53
2018-08-23T08:18:59.077Z,56.04
2018-08-23T08:21:27.497Z,56.02
2018-08-23T08:23:58.758Z,55.79
2018-08-23T08:26:28.571Z,55.28
2018-08-23T08:28:56.908Z,55.09
2018-08-23T08:31:25.227Z,55.15
2018-08-23T08:33:56.611Z,55.23
2018-08-23T08:36:26.118Z,55.06
2018-08-23T08:38:54.601Z,54.41
2018-08-23T08:41:23.081Z,54.58
2018-08-23T08:43:52.249Z,54.18
2018-08-23T08:46:20.601Z,54.04
2018-08-23T08:48:49.449Z,54.40
2018-08-23T08:51:23.462Z,53.89
2018-08-23T08:53:52.715Z,54.02
2018-08-23T08:56:34.151Z,53.39
2018-08-23T08:59:02.835Z,53.30
2018-08-23T09:01:31.228Z,53.59
2018-08-23T09:06:45.879Z,53.98
2018-08-23T09:09:45.206Z,53.30
2018-08-23T09:12:14.167Z,53.30
2018-08-23T09:14:43.315Z,53.50
2018-08-23T09:17:28.347Z,52.72
2018-08-23T09:20:03.247Z,52.55
2018-08-23T09:22:52.599Z,52.41
2018-08-23T09:25:24.009Z,52.55
2018-08-23T09:27:53.043Z,51.73
2018-08-23T09:30:30.445Z,51.79
2018-08-23T09:33:02.988Z,51.50
2018-08-23T09:35:32.430Z,50.50
2018-08-23T09:38:02.757Z,50.76
2018-08-23T09:40:31.184Z,50.94
2018-08-23T09:43:03.197Z,50.67
2018-08-23T09:45:33.004Z,50.57
2018-08-23T09:48:01.345Z,50.22
2018-08-23T09:50:29.968Z,49.60
2018-08-23T09:52:58.346Z,49.84
2018-08-23T09:55:29.584Z,49.86
2018-08-23T09:57:58.384Z,48.97
2018-08-23T10:00:32.233Z,49.21
2018-08-23T10:03:06.115Z,48.99
2018-08-23T10:06:42.739Z,47.85
2018-08-23T10:09:24.944Z,47.61
2018-08-23T10:11:58.449Z,47.17
2018-08-23T10:15:31.290Z,46.68
2018-08-23T10:18:04.787Z,46.25
2018-08-23T10:20:45.402Z,46.68
2018-08-23T10:23:17.109Z,45.38
2018-08-23T10:25:49.652Z,45.13
2018-08-23T10:28:20.302Z,43.42
2018-08-23T10:30:49.182Z,42.34
2018-08-23T10:33:17.898Z,42.02
2018-08-23T10:35:50.432Z,42.68
2018-08-23T10:38:23.360Z,43.20
2018-08-23T10:40:53.298Z,42.37
2018-08-23T10:43:27.105Z,42.30
2018-08-23T10:45:59.653Z,41.58
2018-08-23T10:48:28.234Z,40.60
2018-08-23T10:50:56.633Z,39.81
2018-08-23T10:53:25.001Z,39.11
2018-08-23T10:55:53.398Z,39.31
2018-08-23T10:58:21.784Z,38.95
2018-08-23T11:00:50.167Z,38.93
2018-08-23T11:03:18.707Z,39.46
2018-08-23T11:05:47.047Z,39.23
2018-08-23T11:08:20.993Z,38.72
2018-08-23T11:10:54.694Z,38.17
2018-08-23T11:13:28.435Z,38.20
2018-08-23T11:16:02.137Z,36.56
2018-08-23T11:18:35.970Z,37.83
2018-08-23T11:21:04.394Z,37.78
2018-08-23T11:23:32.773Z,36.46
2018-08-23T11:26:01.441Z,36.47
2018-08-23T11:28:29.952Z,37.43
2018-08-23T11:31:01.062Z,37.11
2018-08-23T11:33:29.510Z,36.72
2018-08-23T11:35:57.851Z,36.44
2018-08-23T11:38:26.194Z,35.74
2018-08-23T11:40:54.911Z,36.61
2018-08-23T11:43:23.283Z,36.93
2018-08-23T11:46:01.736Z,36.76
2018-08-23T11:48:30.495Z,34.52
2018-08-23T11:50:58.835Z,35.66
2018-08-23T11:53:27.370Z,35.48
2018-08-23T11:55:55.572Z,35.20
2018-08-23T11:58:24.040Z,34.82
2018-08-23T12:00:52.488Z,35.93
2018-08-23T12:03:20.880Z,35.92
2018-08-23T12:05:49.219Z,34.70
2018-08-23T12:08:17.671Z,34.84
2018-08-23T12:10:45.999Z,33.99
2018-08-23T12:13:14.359Z,34.23
2018-08-23T12:15:42.900Z,33.68
2018-08-23T12:18:11.300Z,33.38
2018-08-23T12:20:39.816Z,34.04
2018-08-23T12:23:08.388Z,34.09
2018-08-23T12:25:36.793Z,33.56
2018-08-23T12:28:10.670Z,34.46
2018-08-23T12:30:38.988Z,33.34
2018-08-23T12:33:07.075Z,33.87
2018-08-23T12:35:35.632Z,33.75
2018-08-23T12:38:16.215Z,33.24
2018-08-23T12:40:50.191Z,34.11
2018-08-23T12:43:21.764Z,34.73
2018-08-23T12:45:50.240Z,34.43
2018-08-23T12:48:18.627Z,34.26
2018-08-23T12:50:46.948Z,33.04
2018-08-23T12:53:15.360Z,32.02
2018-08-23T12:55:43.688Z,31.90
2018-08-23T12:58:13.069Z,31.82
2018-08-23T13:00:42.680Z,31.48
2018-08-23T13:03:11.285Z,31.80
2018-08-23T13:05:39.971Z,31.23
2018-08-23T13:08:08.354Z,31.08
2018-08-23T13:10:37.371Z,30.58
2018-08-23T13:13:06.203Z,30.89
2018-08-23T13:15:34.656Z,30.42
2018-08-23T13:18:03.640Z,30.90
2018-08-23T13:20:32.000Z,30.90
2018-08-23T13:23:00.424Z,30.22
2018-08-23T13:25:28.987Z,30.52
2018-08-23T13:27:57.392Z,29.80
2018-08-23T13:30:25.776Z,29.43
2018-08-23T13:32:54.180Z,29.91
2018-08-23T13:35:22.821Z,30.64
2018-08-23T13:37:51.213Z,29.32
2018-08-23T13:40:20.377Z,29.60
2018-08-23T13:42:49.432Z,29.43
2018-08-23T13:45:17.880Z,29.28
2018-08-23T13:47:46.296Z,29.36
2018-08-23T13:50:14.720Z,29.14
2018-08-23T13:52:43.252Z,30.05
2018-08-23T13:55:11.643Z,30.49
2018-08-23T13:57:40.022Z,30.12
2018-08-23T14:00:12.151Z,30.25
2018-08-23T14:02:40.619Z,31.33
2018-08-23T14:05:08.985Z,32.20
2018-08-23T14:07:37.926Z,33.18
2018-08-23T14:10:06.452Z,34.20
2018-08-23T14:12:34.838Z,34.51
2018-08-23T14:15:03.203Z,35.45
2018-08-23T14:17:31.675Z,35.81
2018-08-23T14:20:00.029Z,37.29
2018-08-23T14:22:28.543Z,37.69
2018-08-23T14:24:57.133Z,38.61
2018-08-23T14:27:25.611Z,39.61
2018-08-23T14:29:54.072Z,39.33
2018-08-23T14:32:22.545Z,39.04
2018-08-23T14:34:50.881Z,39.27
2018-08-23T14:37:19.345Z,40.01
2018-08-23T14:39:47.791Z,40.05
2018-08-23T14:42:16.193Z,40.76
2018-08-23T14:44:44.777Z,42.78
2018-08-23T14:47:18.532Z,46.05
2018-08-23T14:49:46.942Z,47.89
2018-08-23T14:52:15.425Z,49.25
2018-08-23T14:54:44.437Z,48.76
2018-08-23T14:57:18.107Z,48.52
2018-08-23T14:59:46.631Z,48.62
2018-08-23T15:02:15.043Z,49.33
2018-08-23T15:04:48.588Z,49.58
2018-08-23T15:07:17.554Z,49.92
2018-08-23T15:09:45.968Z,51.10
2018-08-23T15:12:14.445Z,52.37
2018-08-23T15:14:42.832Z,53.70
2018-08-23T15:17:11.465Z,56.00
2018-08-23T15:19:40.168Z,57.97
2018-08-23T15:22:15.333Z,60.58
2018-08-23T15:24:44.926Z,63.44
2018-08-23T15:27:13.412Z,65.09
2018-08-23T15:29:41.700Z,67.24
2018-08-23T15:32:10.141Z,67.07
2018-08-23T15:34:38.628Z,67.77
2018-08-23T15:37:06.951Z,69.23
2018-08-23T15:39:35.550Z,70.73
2018-08-23T15:42:04.019Z,71.66
2018-08-23T15:44:32.361Z,72.23
2018-08-23T15:47:00.952Z,72.60
2018-08-23T15:49:29.315Z,73.30
2018-08-23T15:51:57.729Z,73.47
2018-08-23T15:54:26.252Z,73.69
2018-08-23T15:56:54.685Z,73.71
2018-08-23T15:59:23.017Z,72.58
2018-08-23T16:01:51.631Z,73.09
2018-08-23T16:04:20.033Z,73.29
2018-08-23T16:06:48.361Z,74.05
2018-08-23T16:09:16.825Z,74.28
2018-08-23T16:11:45.278Z,74.65
2018-08-23T16:14:13.690Z,74.77
2018-08-23T16:16:47.556Z,74.75
2018-08-23T16:19:21.305Z,75.20
2018-08-23T16:21:55.829Z,75.31
2018-08-23T16:24:24.866Z,73.72
2018-08-23T16:26:58.813Z,72.54
2018-08-23T16:29:27.170Z,72.39
2018-08-23T16:31:55.809Z,73.02
2018-08-23T16:34:24.251Z,71.74
2018-08-23T16:36:52.713Z,71.56
2018-08-23T16:39:21.073Z,72.76
2018-08-23T16:41:49.515Z,72.01
2018-08-23T16:44:17.940Z,72.36
2018-08-23T16:46:46.470Z,73.55
2018-08-23T16:49:14.932Z,73.87
2018-08-23T16:51:43.271Z,74.67
2018-08-23T16:54:11.673Z,75.34
2018-08-23T16:56:40.229Z,75.46
2018-08-23T16:59:08.737Z,73.92
2018-08-23T17:01:37.085Z,72.60
2018-08-23T17:04:05.711Z,73.26
2018-08-23T17:06:34.187Z,73.86
2018-08-23T17:09:02.646Z,73.88
2018-08-23T17:11:31.116Z,74.02
2018-08-23T17:13:59.619Z,73.64
2018-08-23T17:16:33.453Z,73.75
2018-08-23T17:19:01.894Z,73.61
2018-08-23T17:21:30.533Z,74.10
2018-08-23T17:23:58.921Z,72.75
2018-08-23T17:26:27.309Z,72.69
2018-08-23T17:28:55.710Z,72.94
2018-08-23T17:31:24.220Z,72.44
2018-08-23T17:33:52.542Z,72.11
2018-08-23T17:36:20.971Z,72.05
2018-08-23T17:38:49.514Z,71.37
2018-08-23T17:41:17.911Z,70.55
2018-08-23T17:43:46.257Z,70.57
2018-08-23T17:46:14.985Z,70.11
2018-08-23T17:48:43.335Z,70.73
2018-08-23T17:51:11.829Z,70.93
2018-08-23T17:53:40.343Z,71.28
2018-08-23T17:56:08.773Z,70.87
2018-08-23T17:58:37.350Z,72.03
2018-08-23T18:01:06.261Z,72.53
2018-08-23T18:03:34.723Z,73.04
2018-08-23T18:06:03.104Z,73.55
2018-08-23T18:08:31.821Z,74.01
2018-08-23T18:11:00.340Z,73.79
2018-08-23T18:13:28.947Z,74.30
2018-08-23T18:16:02.921Z,73.88
2018-08-23T18:18:32.236Z,73.54
2018-08-23T18:21:00.738Z,73.14
2018-08-23T18:23:29.321Z,73.77
2018-08-23T18:25:57.849Z,73.89
2018-08-23T18:28:26.345Z,73.93
2018-08-23T18:30:55.085Z,74.32
2018-08-23T18:33:23.541Z,74.31
2018-08-23T18:35:51.900Z,75.25
2018-08-23T18:38:21.347Z,75.68
2018-08-23T18:40:49.780Z,76.22
2018-08-23T18:43:18.219Z,75.18
2018-08-23T18:45:46.879Z,74.87
2018-08-23T18:48:15.692Z,74.21
2018-08-23T18:50:44.080Z,73.60
2018-08-23T18:53:12.656Z,72.86
2018-08-23T18:55:41.315Z,72.02
2018-08-23T18:58:09.710Z,71.89
2018-08-23T19:00:38.430Z,71.36
2018-08-23T19:03:06.768Z,71.17
2018-08-23T19:05:35.143Z,71.26
2018-08-23T19:08:03.499Z,72.11
2018-08-23T19:10:31.936Z,72.84
2018-08-23T19:13:00.377Z,72.50
2018-08-23T19:15:34.108Z,72.71
2018-08-23T19:18:02.476Z,73.15
2018-08-23T19:20:30.851Z,73.68
2018-08-23T19:22:59.372Z,73.57
2018-08-23T19:25:27.818Z,73.08
2018-08-23T19:27:56.158Z,72.04
2018-08-23T19:30:25.001Z,71.70
2018-08-23T19:32:53.515Z,71.46
2018-08-23T19:35:21.870Z,71.05
2018-08-23T19:37:50.395Z,71.19
2018-08-23T19:40:18.720Z,70.25
2018-08-23T19:42:47.112Z,69.75
2018-08-23T19:45:15.768Z,69.62
2018-08-23T19:47:48.435Z,69.28
2018-08-23T19:50:17.448Z,68.37
2018-08-23T19:52:46.136Z,68.12
2018-08-23T19:55:14.614Z,67.65
2018-08-23T19:57:43.016Z,67.30
2018-08-23T20:00:11.849Z,67.02
2018-08-23T20:02:40.495Z,66.71
2018-08-23T20:05:09.172Z,66.42
2018-08-23T20:07:37.774Z,66.31
2018-08-23T20:10:06.272Z,66.13
2018-08-23T20:12:34.830Z,65.82
2018-08-23T20:15:03.196Z,65.74
2018-08-23T20:17:31.618Z,65.43
2018-08-23T20:20:00.136Z,65.59
2018-08-23T20:22:28.612Z,65.41
2018-08-23T20:24:57.046Z,65.21
2018-08-23T20:27:25.525Z,65.51
2018-08-23T20:29:53.919Z,65.31
2018-08-23T20:32:22.472Z,64.82
2018-08-23T20:34:50.770Z,64.77
2018-08-23T20:37:19.195Z,64.60
2018-08-23T20:39:47.752Z,64.61
2018-08-23T20:42:16.315Z,64.50
2018-08-23T20:44:44.789Z,64.56
2018-08-23T20:47:13.253Z,64.62
2018-08-23T20:49:41.897Z,64.79
2018-08-23T20:52:10.273Z,64.86
2018-08-23T20:54:38.767Z,64.71
2018-08-23T20:57:07.287Z,65.32
2018-08-23T20:59:35.705Z,65.35
2018-08-23T21:02:04.167Z,65.30
2018-08-23T21:04:32.763Z,65.44
2018-08-23T21:07:01.229Z,65.60
2018-08-23T21:09:29.679Z,65.54
2018-08-23T21:11:58.099Z,66.27
2018-08-23T21:14:26.419Z,66.73
2018-08-23T21:16:54.897Z,67.06
2018-08-23T21:19:23.555Z,67.51
2018-08-23T21:21:52.993Z,67.18
2018-08-23T21:24:21.335Z,66.97
2018-08-23T21:26:49.947Z,66.87
2018-08-23T21:29:18.704Z,66.33
2018-08-23T21:31:47.113Z,65.80
2018-08-23T21:34:15.683Z,65.83
2018-08-23T21:36:44.075Z,65.64
2018-08-23T21:39:12.460Z,65.65
2018-08-23T21:41:41.056Z,65.79
2018-08-23T21:44:09.447Z,65.51
2018-08-23T21:46:37.987Z,65.38
2018-08-23T21:49:06.865Z,65.35
2018-08-23T21:51:35.261Z,65.39
2018-08-23T21:54:03.633Z,65.63
2018-08-23T21:56:32.207Z,65.30
2018-08-23T21:59:00.657Z,65.23
2018-08-23T22:01:29.080Z,65.83
2018-08-23T22:03:57.609Z,65.42
2018-08-23T22:06:26.055Z,65.68
2018-08-23T22:08:54.477Z,65.41
2018-08-23T22:11:22.964Z,65.40
2018-08-23T22:13:51.462Z,65.49
2018-08-23T22:16:19.871Z,65.78
2018-08-23T22:18:48.427Z,65.80
2018-08-23T22:21:16.746Z,65.84
2018-08-23T22:23:45.110Z,65.98
2018-08-23T22:26:13.671Z,65.92
2018-08-23T22:28:42.087Z,65.65
2018-08-23T22:31:10.439Z,65.35
2018-08-23T22:33:39.003Z,65.45
2018-08-23T22:36:07.386Z,65.61
2018-08-23T22:38:35.699Z,66.06
2018-08-23T22:41:04.347Z,66.44
2018-08-23T22:43:32.741Z,66.61
2018-08-23T22:46:01.084Z,66.87
2018-08-23T22:48:29.787Z,66.88
2018-08-23T22:50:58.127Z,67.57
2018-08-23T22:53:26.552Z,68.06
2018-08-23T22:55:55.212Z,68.16
2018-08-23T22:58:23.516Z,68.61
2018-08-23T23:00:52.400Z,68.92
2018-08-23T23:03:25.992Z,69.10
2018-08-23T23:05:54.330Z,69.12
2018-08-23T23:08:22.656Z,69.60
2018-08-23T23:10:51.248Z,69.52
2018-08-23T23:13:19.639Z,69.12
2018-08-23T23:15:47.995Z,69.23
2018-08-23T23:18:16.572Z,69.44
2018-08-23T23:20:44.895Z,69.08
2018-08-23T23:23:13.372Z,69.16
2018-08-23T23:25:41.730Z,69.16
2018-08-23T23:28:10.087Z,69.03
2018-08-23T23:30:38.477Z,69.48
2018-08-23T23:33:06.954Z,69.06
2018-08-23T23:35:35.374Z,69.14
2018-08-23T23:38:03.719Z,68.54
2018-08-23T23:40:32.157Z,68.80
2018-08-23T23:43:00.478Z,68.48
2018-08-23T23:45:28.912Z,68.78
2018-08-23T23:47:57.420Z,68.47
2018-08-23T23:50:26.593Z,68.39
2018-08-23T23:52:54.910Z,68.61
2018-08-23T23:55:23.271Z,68.66
2018-08-23T23:57:51.770Z,68.55
